Pembrey Sands, United Kingdom
Current Conditions -  °F | °C
As of 6:50 PM on Sunday 23 Nov 2014 (Local Time) from EGOP Reporting Station
Clear Clear  
Wind Chill: 37°   Ceiling: Unl
Heat Index: 37°   Visibility: 6mi
Dew Point: 34°   Wind: 3mph
Humidity: 87%   Direction: 40°NE
Pressure: 30.15"   Gusts: NA
Location:  51.72°N, 4.37°W
Report Text: EGOP 231850Z AUTO 04003KT 9999 // NCD 03/01 Q1021
Loading
Personal Weather Stations






























Interactive Weather Map New forecast layout! Learn more

10-Day Weather Forecast

Advertisements
Track Severe Weather on mobile